Time;durP1;ratioP1;P1;durP2;ratioP2;P2;SDS_P1;SDS_P2;PMS_P1;PMS_P2;Temp;Humidity;BMP_temperature;BMP_pressure;BME280_temperature;BME280_humidity;BME280_pressure;Samples;Min_cycle;Max_cycle;Signal;HPM_P1;HPM_P2
2023/03/27 00:01:48;;;;;;;;;;;;;;;;;;5018161;28;20359;-27
2023/03/27 00:04:14;;;;;;;;;;;;;;;;;;5017513;28;19921;-31
2023/03/27 00:06:40;;;;;;;;;;;;;;;;;;5017659;28;19909;-32
2023/03/27 00:09:07;;;;;;;;;;;;;;;;;;5016211;28;19909;-30
2023/03/27 00:11:33;;;;;;;;;;;;;;;;;;5017780;28;19909;-29
2023/03/27 00:13:59;;;;;;;;;;;;;;;;;;5017337;28;20297;-28
2023/03/27 00:16:26;;;;;;;;;;;;;;;;;;5017359;28;19920;-32
2023/03/27 00:18:53;;;;;;;;;;;;;;;;;;5017658;28;19959;-31
2023/03/27 00:21:19;;;;;;;;;;;;;;;;;;5017663;28;20252;-29
2023/03/27 00:23:45;;;;;;;;;;;;;;;;;;5017470;28;19909;-26
2023/03/27 00:26:12;;;;;;;;;;;;;;;;;;5017573;28;19909;-28
2023/03/27 00:28:38;;;;;;;;;;;;;;;;;;5017505;28;19917;-30
2023/03/27 00:31:04;;;;;;;;;;;;;;;;;;5017214;28;20064;-27
2023/03/27 00:33:30;;;;;;;;;;;;;;;;;;5017013;28;19936;-28
2023/03/27 00:35:56;;;;;;;;;;;;;;;;;;5017097;28;19967;-32
2023/03/27 00:38:23;;;;;;;;;;;;;;;;;;5017009;28;19913;-26
2023/03/27 00:40:54;;;;;;;;;;;;;;;;;;5016998;28;19977;-28
2023/03/27 00:43:20;;;;;;;;;;;;;;;;;;5017222;28;19909;-27
2023/03/27 00:48:30;;;;;;;;;;;;;;;;;;5016908;28;19920;-25
2023/03/27 00:50:57;;;;;;;;;;;;;;;;;;5016832;28;19909;-25
2023/03/27 00:53:23;;;;;;;;;;;;;;;;;;5016621;28;19975;-28
2023/03/27 00:55:49;;;;;;;;;;;;;;;;;;5016634;28;19910;-28
2023/03/27 00:58:15;;;;;;;;;;;;;;;;;;5016608;28;19915;-27
2023/03/27 01:00:41;;;;;;;;;;;;;;;;;;5016777;28;19909;-27
2023/03/27 01:03:07;;;;;;;;;;;;;;;;;;5016414;28;19932;-30
2023/03/27 01:05:32;;;;;;;;;;;;;;;;;;5016765;28;19909;-26
2023/03/27 01:07:58;;;;;;;;;;;;;;;;;;5017141;28;19968;-28
2023/03/27 01:10:25;;;;;;;;;;;;;;;;;;5016432;28;19913;-26
2023/03/27 01:12:50;;;;;;;;;;;;;;;;;;5016212;28;20372;-23
2023/03/27 01:15:16;;;;;;;;;;;;;;;;;;5016484;28;19945;-22
2023/03/27 01:17:42;;;;;;;;;;;;;;;;;;5016493;28;19936;-29
2023/03/27 01:20:09;;;;;;;;;;;;;;;;;;5015801;28;20257;-28
2023/03/27 01:22:35;;;;;;;;;;;;;;;;;;5016038;28;19910;-28
2023/03/27 01:25:01;;;;;;;;;;;;;;;;;;5016211;28;19979;-24
2023/03/27 01:27:29;;;;;;;;;;;;;;;;;;5016378;28;20229;-28
2023/03/27 01:29:55;;;;;;;;;;;;;;;;;;5016341;28;19968;-24
2023/03/27 01:32:21;;;;;;;;;;;;;;;;;;5016207;28;19944;-27
2023/03/27 01:34:47;;;;;;;;;;;;;;;;;;5015873;28;20050;-28
2023/03/27 01:37:13;;;;;;;;;;;;;;;;;;5016163;28;19909;-26
2023/03/27 01:39:39;;;;;;;;;;;;;;;;;;5015805;28;20341;-32
2023/03/27 01:42:05;;;;;;;;;;;;;;;;;;5015996;28;19937;-28
2023/03/27 01:44:31;;;;;;;;;;;;;;;;;;5015739;28;19909;-30
2023/03/27 01:46:57;;;;;;;;;;;;;;;;;;5015632;28;20312;-31
2023/03/27 01:49:23;;;;;;;;;;;;;;;;;;5015903;28;19924;-33
2023/03/27 01:51:49;;;;;;;;;;;;;;;;;;5015550;28;19997;-33
2023/03/27 01:54:16;;;;;;;;;;;;;;;;;;5015544;28;20232;-28
2023/03/27 01:56:50;;;;;;;;;;;;;;;;;;5015607;28;20046;-26
2023/03/27 01:59:16;;;;;;;;;;;;;;;;;;5015837;28;19917;-30
2023/03/27 02:01:42;;;;;;;;;;;;;;;;;;5015785;28;19909;-28
2023/03/27 02:04:08;;;;;;;;;;;;;;;;;;5015252;28;19925;-28
2023/03/27 02:06:34;;;;;;;;;;;;;;;;;;5015478;28;20322;-29
2023/03/27 02:09:00;;;;;;;;;;;;;;;;;;5015615;28;19909;-29
2023/03/27 02:11:26;;;;;;;;;;;;;;;;;;5015348;28;19935;-28
2023/03/27 02:13:52;;;;;;;;;;;;;;;;;;5015159;28;19919;-30
2023/03/27 02:16:18;;;;;;;;;;;;;;;;;;5015495;28;19924;-25
2023/03/27 02:18:46;;;;;;;;;;;;;;;;;;5015248;28;19964;-27
2023/03/27 02:21:13;;;;;;;;;;;;;;;;;;5015520;28;19984;-26
2023/03/27 02:23:39;;;;;;;;;;;;;;;;;;5015175;28;19972;-29
2023/03/27 02:26:05;;;;;;;;;;;;;;;;;;5015134;28;19964;-29
2023/03/27 02:28:32;;;;;;;;;;;;;;;;;;5015117;28;19948;-27
2023/03/27 02:30:58;;;;;;;;;;;;;;;;;;5014603;28;19935;-29
2023/03/27 02:33:24;;;;;;;;;;;;;;;;;;5014859;28;20299;-29
2023/03/27 02:35:50;;;;;;;;;;;;;;;;;;5015001;28;19975;-34
2023/03/27 02:38:16;;;;;;;;;;;;;;;;;;5014957;28;19916;-31
2023/03/27 02:40:42;;;;;;;;;;;;;;;;;;5013989;28;19910;-30
2023/03/27 02:43:08;;;;;;;;;;;;;;;;;;5015163;28;19996;-29
2023/03/27 02:45:34;;;;;;;;;;;;;;;;;;5015195;28;19956;-28
2023/03/27 02:48:00;;;;;;;;;;;;;;;;;;5014953;28;19975;-27
2023/03/27 02:50:26;;;;;;;;;;;;;;;;;;5013861;28;19924;-32
2023/03/27 02:52:52;;;;;;;;;;;;;;;;;;5015015;28;19920;-28
2023/03/27 02:55:18;;;;;;;;;;;;;;;;;;5015014;28;20329;-26
2023/03/27 02:57:45;;;;;;;;;;;;;;;;;;5014702;28;19924;-34
2023/03/27 03:00:24;;;;;;;;;;;;;;;;;;5014769;28;19909;-28
2023/03/27 03:02:50;;;;;;;;;;;;;;;;;;5014436;28;19932;-26
2023/03/27 03:05:16;;;;;;;;;;;;;;;;;;5014983;28;20340;-27
2023/03/27 03:07:42;;;;;;;;;;;;;;;;;;5014674;28;19909;-27
2023/03/27 03:10:10;;;;;;;;;;;;;;;;;;5014745;28;19914;-25
2023/03/27 03:12:36;;;;;;;;;;;;;;;;;;5014634;28;19968;-34
2023/03/27 03:15:02;;;;;;;;;;;;;;;;;;5014560;28;19953;-28
2023/03/27 03:17:28;;;;;;;;;;;;;;;;;;5014541;28;19913;-29
2023/03/27 03:19:54;;;;;;;;;;;;;;;;;;5014507;28;19977;-26
2023/03/27 03:22:20;;;;;;;;;;;;;;;;;;5014477;28;19910;-30
2023/03/27 03:24:46;;;;;;;;;;;;;;;;;;5014511;28;19910;-34
2023/03/27 03:27:13;;;;;;;;;;;;;;;;;;5014491;28;19920;-26
2023/03/27 03:29:39;;;;;;;;;;;;;;;;;;5015010;28;19921;-27
2023/03/27 03:32:05;;;;;;;;;;;;;;;;;;5014691;28;20281;-30
2023/03/27 03:34:32;;;;;;;;;;;;;;;;;;5014332;28;19914;-25
2023/03/27 03:36:58;;;;;;;;;;;;;;;;;;5014245;28;19940;-28
2023/03/27 03:39:24;;;;;;;;;;;;;;;;;;5014216;28;19918;-30
2023/03/27 03:41:50;;;;;;;;;;;;;;;;;;5014396;28;19917;-28
2023/03/27 03:44:16;;;;;;;;;;;;;;;;;;5018243;28;19909;-28
2023/03/27 03:46:42;;;;;;;;;;;;;;;;;;5017672;28;19924;-29
2023/03/27 03:49:08;;;;;;;;;;;;;;;;;;5017760;28;20364;-26
2023/03/27 03:51:34;;;;;;;;;;;;;;;;;;5017741;28;20249;-33
2023/03/27 03:54:04;;;;;;;;;;;;;;;;;;5017528;28;19914;-28
2023/03/27 03:56:30;;;;;;;;;;;;;;;;;;5017855;28;20238;-27
2023/03/27 03:58:56;;;;;;;;;;;;;;;;;;5017708;28;19917;-30
2023/03/27 04:03:58;;;;;;;;;;;;;;;;;;5073592;23;20013;-23
2023/03/27 04:06:24;;;;;;;;;;;;;;;;;;4998055;28;19952;-24
2023/03/27 04:08:51;;;;;;;;;;;;;;;;;;4998152;28;19941;-25
2023/03/27 04:11:17;;;;;;;;;;;;;;;;;;4997996;28;19921;-25
2023/03/27 04:13:43;;;;;;;;;;;;;;;;;;4997526;28;19914;-25
2023/03/27 04:16:08;;;;;;;;;;;;;;;;;;4997789;28;19909;-24
2023/03/27 04:18:36;;;;;;;;;;;;;;;;;;4997599;28;19921;-25
2023/03/27 04:21:02;;;;;;;;;;;;;;;;;;4997743;28;19933;-24
2023/03/27 04:23:32;;;;;;;;;;;;;;;;;;4997341;28;19910;-24
2023/03/27 04:26:02;;;;;;;;;;;;;;;;;;4997282;28;19910;-24
2023/03/27 04:28:29;;;;;;;;;;;;;;;;;;4997391;28;19941;-24
2023/03/27 04:30:55;;;;;;;;;;;;;;;;;;4997300;28;19968;-25
2023/03/27 04:33:21;;;;;;;;;;;;;;;;;;4997316;28;19993;-24
2023/03/27 04:35:49;;;;;;;;;;;;;;;;;;4997076;28;19936;-24
2023/03/27 04:38:15;;;;;;;;;;;;;;;;;;4996934;28;19909;-24
2023/03/27 04:40:47;;;;;;;;;;;;;;;;;;4997283;28;19910;-25
2023/03/27 04:43:14;;;;;;;;;;;;;;;;;;4996948;28;19940;-25
2023/03/27 04:45:40;;;;;;;;;;;;;;;;;;4997042;28;20229;-25
2023/03/27 04:48:06;;;;;;;;;;;;;;;;;;4996976;28;19910;-24
2023/03/27 04:50:34;;;;;;;;;;;;;;;;;;4997164;28;19910;-24
2023/03/27 04:53:00;;;;;;;;;;;;;;;;;;4997128;28;20329;-25
2023/03/27 04:55:26;;;;;;;;;;;;;;;;;;4995668;28;19913;-25
2023/03/27 04:57:52;;;;;;;;;;;;;;;;;;4996645;28;20264;-25
2023/03/27 05:00:18;;;;;;;;;;;;;;;;;;4996554;28;19914;-25
2023/03/27 05:02:44;;;;;;;;;;;;;;;;;;4996322;28;19926;-24
2023/03/27 05:05:10;;;;;;;;;;;;;;;;;;4996586;28;19921;-25
2023/03/27 05:07:36;;;;;;;;;;;;;;;;;;4996449;28;19964;-24
2023/03/27 05:10:02;;;;;;;;;;;;;;;;;;4996390;28;19910;-33
2023/03/27 05:12:28;;;;;;;;;;;;;;;;;;4979112;28;19910;-25
2023/03/27 05:14:54;;;;;;;;;;;;;;;;;;4996517;28;19917;-25
2023/03/27 05:17:24;;;;;;;;;;;;;;;;;;4996782;28;19910;-26
2023/03/27 05:19:50;;;;;;;;;;;;;;;;;;4996477;28;19976;-25
2023/03/27 05:22:16;;;;;;;;;;;;;;;;;;4996315;28;20322;-25
2023/03/27 05:24:42;;;;;;;;;;;;;;;;;;4996463;28;19909;-25
2023/03/27 05:27:09;;;;;;;;;;;;;;;;;;4996688;28;19945;-35
2023/03/27 05:29:35;;;;;;;;;;;;;;;;;;4978986;28;19917;-25
2023/03/27 05:32:01;;;;;;;;;;;;;;;;;;4996583;28;19980;-25
2023/03/27 05:34:27;;;;;;;;;;;;;;;;;;4996364;28;19956;-25
2023/03/27 05:36:53;;;;;;;;;;;;;;;;;;4996193;28;19909;-25
2023/03/27 05:39:20;;;;;;;;;;;;;;;;;;4996087;28;19917;-25
2023/03/27 05:41:46;;;;;;;;;;;;;;;;;;4995954;28;20375;-25
2023/03/27 05:44:12;;;;;;;;;;;;;;;;;;4996017;28;19910;-25
2023/03/27 05:46:39;;;;;;;;;;;;;;;;;;4995893;28;19978;-25
2023/03/27 05:49:05;;;;;;;;;;;;;;;;;;4978409;28;20364;-25
2023/03/27 05:51:32;;;;;;;;;;;;;;;;;;4996059;28;19910;-25
2023/03/27 05:53:58;;;;;;;;;;;;;;;;;;4995919;28;19914;-25
2023/03/27 05:56:25;;;;;;;;;;;;;;;;;;4995777;28;20300;-25
2023/03/27 05:58:51;;;;;;;;;;;;;;;;;;4995547;28;20316;-25
2023/03/27 06:01:17;;;;;;;;;;;;;;;;;;4995618;28;19914;-25
2023/03/27 06:03:43;;;;;;;;;;;;;;;;;;4995349;28;20335;-25
2023/03/27 06:06:09;;;;;;;;;;;;;;;;;;4995665;28;19921;-25
2023/03/27 06:08:35;;;;;;;;;;;;;;;;;;4995728;28;19965;-25
2023/03/27 06:11:01;;;;;;;;;;;;;;;;;;4978258;28;19972;-24
2023/03/27 06:13:27;;;;;;;;;;;;;;;;;;4978199;28;20001;-24
2023/03/27 06:15:53;;;;;;;;;;;;;;;;;;4994975;28;20206;-24
2023/03/27 06:18:19;;;;;;;;;;;;;;;;;;4995062;28;19917;-26
2023/03/27 06:20:46;;;;;;;;;;;;;;;;;;4995157;28;19910;-23
2023/03/27 06:23:12;;;;;;;;;;;;;;;;;;4977572;28;20372;-24
2023/03/27 06:25:38;;;;;;;;;;;;;;;;;;4994786;28;19909;-24
2023/03/27 06:28:05;;;;;;;;;;;;;;;;;;4994824;28;19914;-24
2023/03/27 06:30:31;;;;;;;;;;;;;;;;;;4994703;28;20000;-24
2023/03/27 06:32:57;;;;;;;;;;;;;;;;;;4994671;28;19910;-24
2023/03/27 06:35:24;;;;;;;;;;;;;;;;;;4994770;28;19938;-23
2023/03/27 06:37:50;;;;;;;;;;;;;;;;;;4994645;28;19999;-25
2023/03/27 06:40:21;;;;;;;;;;;;;;;;;;4977744;28;19917;-24
2023/03/27 06:42:47;;;;;;;;;;;;;;;;;;4995331;28;20001;-25
2023/03/27 06:45:13;;;;;;;;;;;;;;;;;;4994970;28;20016;-23
2023/03/27 06:47:39;;;;;;;;;;;;;;;;;;4995210;28;19964;-23
2023/03/27 06:50:05;;;;;;;;;;;;;;;;;;4995018;28;19914;-23
2023/03/27 06:52:31;;;;;;;;;;;;;;;;;;4994982;28;19992;-23
2023/03/27 06:54:57;;;;;;;;;;;;;;;;;;4995079;28;19972;-22
2023/03/27 06:57:23;;;;;;;;;;;;;;;;;;4994904;28;19924;-23
2023/03/27 06:59:50;;;;;;;;;;;;;;;;;;4994863;28;19910;-24
2023/03/27 07:02:16;;;;;;;;;;;;;;;;;;4994556;28;19913;-23
2023/03/27 07:04:42;;;;;;;;;;;;;;;;;;4994886;28;19914;-23
2023/03/27 07:07:08;;;;;;;;;;;;;;;;;;4994865;28;20367;-23
2023/03/27 07:09:34;;;;;;;;;;;;;;;;;;4994737;28;19913;-24
2023/03/27 07:12:00;;;;;;;;;;;;;;;;;;4994810;28;20345;-24
2023/03/27 07:14:26;;;;;;;;;;;;;;;;;;4994828;28;19976;-23
2023/03/27 07:16:52;;;;;;;;;;;;;;;;;;4994697;28;19922;-23
2023/03/27 07:19:18;;;;;;;;;;;;;;;;;;4998501;28;20000;-24
2023/03/27 07:21:44;;;;;;;;;;;;;;;;;;4998507;28;19913;-23
2023/03/27 07:24:10;;;;;;;;;;;;;;;;;;4998538;28;19981;-23
2023/03/27 07:26:36;;;;;;;;;;;;;;;;;;4998502;28;19996;-28
2023/03/27 07:29:02;;;;;;;;;;;;;;;;;;4998598;28;19945;-23
2023/03/27 07:31:29;;;;;;;;;;;;;;;;;;4998194;28;19921;-23
2023/03/27 07:33:56;;;;;;;;;;;;;;;;;;4997971;28;19921;-24
2023/03/27 07:36:22;;;;;;;;;;;;;;;;;;4997994;28;19918;-25
2023/03/27 07:38:48;;;;;;;;;;;;;;;;;;4998171;28;20256;-25
2023/03/27 07:41:14;;;;;;;;;;;;;;;;;;4981035;28;19913;-25
2023/03/27 07:43:40;;;;;;;;;;;;;;;;;;4998110;28;19937;-25
2023/03/27 07:46:06;;;;;;;;;;;;;;;;;;4980909;28;20273;-25
2023/03/27 07:48:34;;;;;;;;;;;;;;;;;;4997899;28;19914;-25
2023/03/27 07:51:01;;;;;;;;;;;;;;;;;;4980675;28;19921;-25
2023/03/27 07:53:27;;;;;;;;;;;;;;;;;;4998192;28;20264;-25
2023/03/27 07:55:53;;;;;;;;;;;;;;;;;;4997848;28;19913;-25
2023/03/27 07:58:20;;;;;;;;;;;;;;;;;;4980624;28;19909;-25
2023/03/27 08:00:50;;;;;;;;;;;;;;;;;;4980505;28;20348;-24
2023/03/27 08:03:16;;;;;;;;;;;;;;;;;;4997492;28;20259;-24
2023/03/27 08:05:42;;;;;;;;;;;;;;;;;;4997812;28;19909;-25
2023/03/27 08:08:08;;;;;;;;;;;;;;;;;;4997466;28;19910;-25
2023/03/27 08:10:35;;;;;;;;;;;;;;;;;;4997590;28;19913;-24
2023/03/27 08:13:01;;;;;;;;;;;;;;;;;;4997672;28;20316;-24
2023/03/27 08:15:27;;;;;;;;;;;;;;;;;;4997549;28;19913;-25
2023/03/27 08:17:55;;;;;;;;;;;;;;;;;;4997583;28;19910;-25
2023/03/27 08:20:22;;;;;;;;;;;;;;;;;;4997258;28;19910;-24
2023/03/27 08:22:48;;;;;;;;;;;;;;;;;;4997515;28;19910;-25
2023/03/27 08:25:14;;;;;;;;;;;;;;;;;;4997128;28;19910;-25
2023/03/27 08:27:40;;;;;;;;;;;;;;;;;;4997592;28;19932;-22
2023/03/27 08:30:06;;;;;;;;;;;;;;;;;;4996356;28;19917;-21
2023/03/27 08:32:32;;;;;;;;;;;;;;;;;;4997237;28;19910;-22
2023/03/27 08:34:58;;;;;;;;;;;;;;;;;;4979868;28;19914;-24
2023/03/27 08:37:26;;;;;;;;;;;;;;;;;;4997408;28;19914;-24
2023/03/27 08:39:57;;;;;;;;;;;;;;;;;;4997085;28;20300;-22
2023/03/27 08:42:23;;;;;;;;;;;;;;;;;;4996891;28;19985;-23
2023/03/27 08:44:51;;;;;;;;;;;;;;;;;;4996623;28;20217;-21
2023/03/27 08:47:17;;;;;;;;;;;;;;;;;;4978981;28;19945;-23
2023/03/27 08:49:43;;;;;;;;;;;;;;;;;;4996426;28;19941;-21
2023/03/27 08:52:09;;;;;;;;;;;;;;;;;;4996431;28;19910;-23
2023/03/27 08:54:35;;;;;;;;;;;;;;;;;;4996134;28;19915;-22
2023/03/27 08:57:01;;;;;;;;;;;;;;;;;;4996493;28;19910;-23
2023/03/27 08:59:27;;;;;;;;;;;;;;;;;;4996232;28;19916;-23
2023/03/27 09:01:53;;;;;;;;;;;;;;;;;;4996219;28;20234;-24
2023/03/27 09:04:19;;;;;;;;;;;;;;;;;;4995937;28;19928;-23
2023/03/27 09:06:47;;;;;;;;;;;;;;;;;;4978775;28;19920;-21
2023/03/27 09:09:13;;;;;;;;;;;;;;;;;;4995923;28;19909;-23
2023/03/27 09:11:39;;;;;;;;;;;;;;;;;;4995861;28;19910;-20
2023/03/27 09:14:05;;;;;;;;;;;;;;;;;;4995899;28;20284;-22
2023/03/27 09:16:31;;;;;;;;;;;;;;;;;;4995885;28;19921;-24
2023/03/27 09:18:57;;;;;;;;;;;;;;;;;;4995979;28;19917;-21
2023/03/27 09:21:23;;;;;;;;;;;;;;;;;;4995872;28;19921;-22
2023/03/27 09:23:52;;;;;;;;;;;;;;;;;;4995957;28;19921;-21
2023/03/27 09:26:18;;;;;;;;;;;;;;;;;;4995910;28;19933;-24
2023/03/27 09:28:49;;;;;;;;;;;;;;;;;;4996101;28;19914;-22
2023/03/27 09:31:16;;;;;;;;;;;;;;;;;;4996251;28;19992;-22
2023/03/27 09:33:43;;;;;;;;;;;;;;;;;;4995807;28;19997;-21
2023/03/27 09:36:09;;;;;;;;;;;;;;;;;;4995945;28;19909;-22
2023/03/27 09:38:35;;;;;;;;;;;;;;;;;;4995889;28;19910;-22
2023/03/27 09:41:01;;;;;;;;;;;;;;;;;;4995818;28;19909;-21
2023/03/27 09:43:28;;;;;;;;;;;;;;;;;;4995774;28;19910;-22
2023/03/27 09:45:54;;;;;;;;;;;;;;;;;;4995938;28;19910;-23
2023/03/27 09:48:20;;;;;;;;;;;;;;;;;;4995835;28;19910;-24
2023/03/27 09:50:48;;;;;;;;;;;;;;;;;;4996096;28;20228;-25
2023/03/27 09:53:14;;;;;;;;;;;;;;;;;;4978649;28;20226;-22
2023/03/27 09:55:40;;;;;;;;;;;;;;;;;;4995914;28;19925;-23
2023/03/27 09:58:06;;;;;;;;;;;;;;;;;;4995683;28;19910;-22
2023/03/27 10:00:32;;;;;;;;;;;;;;;;;;4996046;28;19910;-23
2023/03/27 10:02:59;;;;;;;;;;;;;;;;;;4995698;28;20324;-22
2023/03/27 10:05:25;;;;;;;;;;;;;;;;;;4995699;28;19914;-24
2023/03/27 10:07:51;;;;;;;;;;;;;;;;;;4995496;28;19976;-23
2023/03/27 10:10:18;;;;;;;;;;;;;;;;;;4995474;28;19910;-22
2023/03/27 10:12:44;;;;;;;;;;;;;;;;;;4995289;28;19913;-23
2023/03/27 10:15:10;;;;;;;;;;;;;;;;;;4995217;28;19981;-22
2023/03/27 10:17:36;;;;;;;;;;;;;;;;;;4995219;28;19913;-24
2023/03/27 10:20:07;;;;;;;;;;;;;;;;;;4995628;28;20313;-23
2023/03/27 10:22:33;;;;;;;;;;;;;;;;;;4995291;28;20034;-24
2023/03/27 10:24:59;;;;;;;;;;;;;;;;;;4995181;28;19917;-22
2023/03/27 10:27:25;;;;;;;;;;;;;;;;;;4995144;28;19910;-22
2023/03/27 10:29:51;;;;;;;;;;;;;;;;;;4977865;28;19936;-24
2023/03/27 10:32:17;;;;;;;;;;;;;;;;;;4994832;28;19917;-23
2023/03/27 10:34:43;;;;;;;;;;;;;;;;;;4994968;28;19922;-22
2023/03/27 10:37:09;;;;;;;;;;;;;;;;;;4995065;28;19910;-22
2023/03/27 10:39:35;;;;;;;;;;;;;;;;;;4977822;28;20336;-21
2023/03/27 10:42:01;;;;;;;;;;;;;;;;;;4977727;28;19910;-24
2023/03/27 10:44:27;;;;;;;;;;;;;;;;;;4994979;28;19952;-23
2023/03/27 10:46:53;;;;;;;;;;;;;;;;;;4994614;28;19910;-24
2023/03/27 10:49:19;;;;;;;;;;;;;;;;;;4994712;28;19909;-23
2023/03/27 10:51:46;;;;;;;;;;;;;;;;;;4994211;28;19910;-22
2023/03/27 10:54:12;;;;;;;;;;;;;;;;;;4994184;28;20018;-21
2023/03/27 10:56:38;;;;;;;;;;;;;;;;;;4994418;28;20043;-24
2023/03/27 10:59:04;;;;;;;;;;;;;;;;;;4994674;28;19980;-22
2023/03/27 11:01:31;;;;;;;;;;;;;;;;;;4994235;28;19910;-21
2023/03/27 11:03:57;;;;;;;;;;;;;;;;;;4993523;28;20008;-22
2023/03/27 11:06:23;;;;;;;;;;;;;;;;;;4976670;28;20040;-23
2023/03/27 11:08:50;;;;;;;;;;;;;;;;;;4994123;28;19910;-20
2023/03/27 11:11:16;;;;;;;;;;;;;;;;;;4993956;28;20270;-23
2023/03/27 11:13:42;;;;;;;;;;;;;;;;;;4994043;28;19956;-24
2023/03/27 11:16:08;;;;;;;;;;;;;;;;;;4993870;28;19910;-23
2023/03/27 11:18:34;;;;;;;;;;;;;;;;;;4994280;28;19909;-22
2023/03/27 11:21:00;;;;;;;;;;;;;;;;;;4994226;28;20360;-21
2023/03/27 11:23:27;;;;;;;;;;;;;;;;;;4994543;28;19909;-23
2023/03/27 11:25:53;;;;;;;;;;;;;;;;;;4994659;28;20000;-23
2023/03/27 11:28:19;;;;;;;;;;;;;;;;;;4994610;28;19956;-23
2023/03/27 11:30:45;;;;;;;;;;;;;;;;;;4977487;28;19945;-22
2023/03/27 11:33:12;;;;;;;;;;;;;;;;;;4977280;28;20063;-22
2023/03/27 11:35:38;;;;;;;;;;;;;;;;;;4994500;28;20252;-21
2023/03/27 11:38:05;;;;;;;;;;;;;;;;;;4994537;28;19910;-23
2023/03/27 11:40:33;;;;;;;;;;;;;;;;;;4994849;28;20264;-23
2023/03/27 11:42:59;;;;;;;;;;;;;;;;;;4994543;28;19910;-22
2023/03/27 11:45:26;;;;;;;;;;;;;;;;;;4994525;28;20379;-21
2023/03/27 11:47:52;;;;;;;;;;;;;;;;;;4994758;28;19910;-24
2023/03/27 11:50:18;;;;;;;;;;;;;;;;;;4994691;28;19917;-22
2023/03/27 11:52:43;;;;;;;;;;;;;;;;;;4994239;28;19910;-23
2023/03/27 11:55:09;;;;;;;;;;;;;;;;;;4994189;28;19930;-23
2023/03/27 11:57:35;;;;;;;;;;;;;;;;;;4976836;28;20313;-22
2023/03/27 12:00:03;;;;;;;;;;;;;;;;;;4994160;28;19910;-24
2023/03/27 12:02:29;;;;;;;;;;;;;;;;;;4994062;28;19910;-22
2023/03/27 12:04:55;;;;;;;;;;;;;;;;;;4997162;28;19921;-22
2023/03/27 12:07:21;;;;;;;;;;;;;;;;;;4998229;28;20245;-23
2023/03/27 12:09:47;;;;;;;;;;;;;;;;;;4997925;28;19910;-22
2023/03/27 12:12:13;;;;;;;;;;;;;;;;;;4997868;28;20280;-22
2023/03/27 12:14:39;;;;;;;;;;;;;;;;;;4997578;28;20016;-22
2023/03/27 12:17:05;;;;;;;;;;;;;;;;;;4997878;28;19913;-23
2023/03/27 12:19:31;;;;;;;;;;;;;;;;;;4997669;28;20308;-23
2023/03/27 12:21:57;;;;;;;;;;;;;;;;;;4997498;28;19910;-22
2023/03/27 12:24:23;;;;;;;;;;;;;;;;;;4997451;28;20261;-22
2023/03/27 12:26:49;;;;;;;;;;;;;;;;;;4980200;28;19910;-22
2023/03/27 12:29:15;;;;;;;;;;;;;;;;;;4997168;28;19997;-25
2023/03/27 12:31:41;;;;;;;;;;;;;;;;;;4997351;28;20349;-24
2023/03/27 12:34:07;;;;;;;;;;;;;;;;;;4997009;28;19914;-23
2023/03/27 12:36:33;;;;;;;;;;;;;;;;;;4997097;28;19996;-22
2023/03/27 12:38:59;;;;;;;;;;;;;;;;;;4997588;28;20372;-23
2023/03/27 12:41:25;;;;;;;;;;;;;;;;;;4997073;28;19910;-23
2023/03/27 12:43:51;;;;;;;;;;;;;;;;;;4996730;28;19909;-23
2023/03/27 12:46:17;;;;;;;;;;;;;;;;;;4996946;28;19909;-21
2023/03/27 12:48:43;;;;;;;;;;;;;;;;;;4996749;28;19910;-22
2023/03/27 12:51:09;;;;;;;;;;;;;;;;;;4979404;28;20349;-24
2023/03/27 12:53:35;;;;;;;;;;;;;;;;;;4979406;28;19918;-22
2023/03/27 12:56:01;;;;;;;;;;;;;;;;;;4996596;28;20024;-21
2023/03/27 12:58:27;;;;;;;;;;;;;;;;;;4996739;28;19957;-23
2023/03/27 13:00:53;;;;;;;;;;;;;;;;;;4996630;28;19929;-23
2023/03/27 13:03:19;;;;;;;;;;;;;;;;;;4996392;28;19921;-23
2023/03/27 13:05:45;;;;;;;;;;;;;;;;;;4996651;28;19910;-23
2023/03/27 13:08:11;;;;;;;;;;;;;;;;;;4996656;28;19917;-23
2023/03/27 13:10:37;;;;;;;;;;;;;;;;;;4996285;28;19992;-22
2023/03/27 13:13:03;;;;;;;;;;;;;;;;;;4978945;28;19918;-21
2023/03/27 13:15:29;;;;;;;;;;;;;;;;;;4978336;28;20237;-23
2023/03/27 13:17:55;;;;;;;;;;;;;;;;;;4996334;28;20004;-23
2023/03/27 13:20:21;;;;;;;;;;;;;;;;;;4996149;28;19909;-25
2023/03/27 13:22:47;;;;;;;;;;;;;;;;;;4996384;28;19916;-24
2023/03/27 13:25:13;;;;;;;;;;;;;;;;;;4996189;28;19909;-22
2023/03/27 13:27:39;;;;;;;;;;;;;;;;;;4996654;28;20171;-21
2023/03/27 13:30:06;;;;;;;;;;;;;;;;;;4996332;28;19944;-22
2023/03/27 13:32:32;;;;;;;;;;;;;;;;;;4996349;28;20329;-22
2023/03/27 13:34:58;;;;;;;;;;;;;;;;;;4996311;28;19918;-21
2023/03/27 13:37:24;;;;;;;;;;;;;;;;;;4996123;28;20420;-24
2023/03/27 13:39:50;;;;;;;;;;;;;;;;;;4995833;28;19910;-22
2023/03/27 13:42:16;;;;;;;;;;;;;;;;;;4995784;28;19933;-23
2023/03/27 13:44:43;;;;;;;;;;;;;;;;;;4995807;28;19917;-22
2023/03/27 13:47:09;;;;;;;;;;;;;;;;;;4995719;28;19922;-21
2023/03/27 13:49:35;;;;;;;;;;;;;;;;;;4978537;28;20064;-23
2023/03/27 13:52:01;;;;;;;;;;;;;;;;;;4995694;28;19920;-23
2023/03/27 13:54:27;;;;;;;;;;;;;;;;;;4995938;28;19989;-24
2023/03/27 13:56:53;;;;;;;;;;;;;;;;;;4995708;28;19914;-23
2023/03/27 13:59:19;;;;;;;;;;;;;;;;;;4996213;28;19910;-23
2023/03/27 14:01:45;;;;;;;;;;;;;;;;;;4995547;28;20007;-22
2023/03/27 14:04:12;;;;;;;;;;;;;;;;;;4995283;28;19930;-26
2023/03/27 14:06:38;;;;;;;;;;;;;;;;;;4995701;28;20289;-23
2023/03/27 14:09:09;;;;;;;;;;;;;;;;;;4995485;28;19910;-23
2023/03/27 14:11:35;;;;;;;;;;;;;;;;;;4995534;28;19920;-23
2023/03/27 14:14:01;;;;;;;;;;;;;;;;;;4995237;28;19914;-22
2023/03/27 14:16:27;;;;;;;;;;;;;;;;;;4995425;28;20000;-22
2023/03/27 14:18:54;;;;;;;;;;;;;;;;;;4994737;28;19914;-25
2023/03/27 14:21:22;;;;;;;;;;;;;;;;;;4995072;28;19953;-23
2023/03/27 14:23:48;;;;;;;;;;;;;;;;;;4995602;28;19910;-21
2023/03/27 14:26:17;;;;;;;;;;;;;;;;;;4995205;28;20308;-24
2023/03/27 14:28:43;;;;;;;;;;;;;;;;;;4994185;28;20008;-21
2023/03/27 14:31:13;;;;;;;;;;;;;;;;;;4995020;28;19953;-21
2023/03/27 14:33:41;;;;;;;;;;;;;;;;;;4995181;28;19932;-23
2023/03/27 14:36:07;;;;;;;;;;;;;;;;;;4994911;28;19914;-22
2023/03/27 14:38:33;;;;;;;;;;;;;;;;;;4994915;28;19910;-23
2023/03/27 14:40:59;;;;;;;;;;;;;;;;;;4994902;28;20060;-23
2023/03/27 14:43:26;;;;;;;;;;;;;;;;;;4994770;28;20297;-23
2023/03/27 14:45:52;;;;;;;;;;;;;;;;;;4977408;28;19977;-22
2023/03/27 14:48:18;;;;;;;;;;;;;;;;;;4994634;28;19921;-23
2023/03/27 14:50:45;;;;;;;;;;;;;;;;;;4994895;28;19909;-22
2023/03/27 14:53:11;;;;;;;;;;;;;;;;;;4994574;28;19910;-23
2023/03/27 14:55:37;;;;;;;;;;;;;;;;;;4994457;28;19969;-21
2023/03/27 14:58:07;;;;;;;;;;;;;;;;;;4994815;28;20001;-24
2023/03/27 15:00:33;;;;;;;;;;;;;;;;;;4994631;28;19910;-22
2023/03/27 15:03:00;;;;;;;;;;;;;;;;;;4994195;28;20261;-22
2023/03/27 15:05:26;;;;;;;;;;;;;;;;;;4977240;28;19917;-21
2023/03/27 15:07:53;;;;;;;;;;;;;;;;;;4994447;28;19910;-23
2023/03/27 15:10:22;;;;;;;;;;;;;;;;;;4994354;28;19910;-23
2023/03/27 15:12:48;;;;;;;;;;;;;;;;;;4994059;28;19949;-21
2023/03/27 15:15:14;;;;;;;;;;;;;;;;;;4993886;28;20360;-22
2023/03/27 15:17:43;;;;;;;;;;;;;;;;;;4976862;28;20043;-22
2023/03/27 15:20:10;;;;;;;;;;;;;;;;;;4976801;28;19937;-21
2023/03/27 15:22:36;;;;;;;;;;;;;;;;;;4993853;28;20068;-23
2023/03/27 15:25:02;;;;;;;;;;;;;;;;;;4976743;28;20376;-22
2023/03/27 15:27:28;;;;;;;;;;;;;;;;;;4993738;28;19917;-21
2023/03/27 15:29:56;;;;;;;;;;;;;;;;;;4994352;28;19910;-23
2023/03/27 15:32:22;;;;;;;;;;;;;;;;;;4976527;28;19964;-22
2023/03/27 15:34:48;;;;;;;;;;;;;;;;;;4993832;28;20012;-23
2023/03/27 15:37:14;;;;;;;;;;;;;;;;;;4994272;28;20108;-23
2023/03/27 15:39:40;;;;;;;;;;;;;;;;;;4996768;28;19910;-22
2023/03/27 15:42:07;;;;;;;;;;;;;;;;;;4997998;28;20009;-21
2023/03/27 15:44:33;;;;;;;;;;;;;;;;;;4998336;28;19909;-21
2023/03/27 15:46:59;;;;;;;;;;;;;;;;;;4998006;28;20336;-24
2023/03/27 15:49:26;;;;;;;;;;;;;;;;;;4998373;28;19916;-22
2023/03/27 15:51:52;;;;;;;;;;;;;;;;;;4997939;28;20265;-23
2023/03/27 15:54:18;;;;;;;;;;;;;;;;;;4997935;28;19926;-21
2023/03/27 15:56:44;;;;;;;;;;;;;;;;;;4998321;28;19918;-21
2023/03/27 15:59:10;;;;;;;;;;;;;;;;;;4997756;28;20283;-23
2023/03/27 16:01:36;;;;;;;;;;;;;;;;;;4997968;28;19910;-22
2023/03/27 16:04:02;;;;;;;;;;;;;;;;;;4997362;28;20345;-22
2023/03/27 16:06:29;;;;;;;;;;;;;;;;;;4997509;28;19925;-22
2023/03/27 16:08:55;;;;;;;;;;;;;;;;;;4997363;28;19928;-21
2023/03/27 16:11:21;;;;;;;;;;;;;;;;;;4997716;28;19989;-22
2023/03/27 16:13:47;;;;;;;;;;;;;;;;;;4997714;28;19910;-21
2023/03/27 16:16:13;;;;;;;;;;;;;;;;;;4997888;28;20364;-23
2023/03/27 16:18:41;;;;;;;;;;;;;;;;;;4996978;28;21386;-24
2023/03/27 16:21:08;;;;;;;;;;;;;;;;;;4997760;28;19914;-22
2023/03/27 16:23:34;;;;;;;;;;;;;;;;;;4997444;28;19927;-22
2023/03/27 16:26:00;;;;;;;;;;;;;;;;;;4997675;28;19909;-22
2023/03/27 16:28:28;;;;;;;;;;;;;;;;;;4979940;28;20305;-21
2023/03/27 16:30:55;;;;;;;;;;;;;;;;;;4997197;28;19917;-22
2023/03/27 16:33:21;;;;;;;;;;;;;;;;;;4997080;28;19921;-22
2023/03/27 16:35:47;;;;;;;;;;;;;;;;;;4997040;28;19914;-22
2023/03/27 16:38:13;;;;;;;;;;;;;;;;;;4997007;28;19937;-22
2023/03/27 16:40:39;;;;;;;;;;;;;;;;;;4997100;28;20016;-22
2023/03/27 16:43:05;;;;;;;;;;;;;;;;;;4979677;28;19913;-21
2023/03/27 16:45:31;;;;;;;;;;;;;;;;;;4996807;28;19933;-22